VTCC/CNX METAR and TAF weather

Enter ICAO airport designator
Station Type Date Time Source
VTCC METAR 2021/04/13 07:30 UTC NOAA

VTCC 130730Z VRB04KT 9999 FEW035 34/21 Q1009 NOSIG


Station Type Date Time Source
VTCC Decoded METAR 2021/04/13 07:30 UTC NOAA

Chiang Mai, Thailand (VTCC) 18-47N 098-59E 314M
Apr 13, 2021 - 03:30 AM EDT / 2021.04.13 0730 UTC
Wind: Variable at 5 MPH (4 KT):0
Visibility: greater than 7 mile(s):0
Sky conditions: mostly clear
Temperature: 93 F (34 C)
Heat index: 98.4 F (36.9 C):1
Dew Point: 69 F (21 C)
Relative Humidity: 46%
Pressure (altimeter): 29.80 in. Hg (1009 hPa)
ob: VTCC 130730Z VRB04KT 9999 FEW035 34/21 Q1009 NOSIG
cycle: 7

Station Type Date Time Source
VTCC TAF 2021/04/13 06:37 UTC NOAA

TAF VTCC 130500Z 1306/1412 18005KT 9999 FEW035
TEMPO 1308/1314 30015G30KT 3000 TSRA FEW025CB BKN035
BECMG 1317/1319 32005KT

Example: see airport list